WMT4G EDDN-LRTR
Flight info
| Callsign | WMT4G |
|---|---|
| Flight time | 1h 23m |
| Altitude | 39000 |
| Route | RODIS1C RODIS L604 LAMSI DCT TAGAS DCT PESAT DCT TEGRI |
| Aircraft | A320/M-SDE1E2E3FGIJ1J4RWXY/LB1 |
Departure
| Time | 2026-05-01 08:45 |
|---|---|
| Airport | Nuremberg Airport (EDDN) |
Arrival
| Time | 2026-05-01 10:09 |
|---|---|
| Airport | Timișoara Traian Vuia International Airport (LRTR) |
| Time | Latitude | Longitude | Altitude | Speed | Heading |
|---|---|---|---|---|---|
| 2026-05-01 08:17 | 49.49515 | 11.07852 | 1026 ft | 0 kts | 188° |
| 2026-05-01 08:35 | 49.49538 | 11.07859 | 1026 ft | 2 kts | 188° |
| 2026-05-01 08:36 | 49.49559 | 11.07867 | 1024 ft | 4 kts | 223° |
| 2026-05-01 08:36 | 49.49571 | 11.07900 | 1027 ft | 4 kts | 269° |
| 2026-05-01 08:36 | 49.49571 | 11.07917 | 1027 ft | 0 kts | 278° |
| 2026-05-01 08:40 | 49.49576 | 11.07870 | 1024 ft | 7 kts | 279° |
| 2026-05-01 08:40 | 49.49586 | 11.07765 | 1024 ft | 12 kts | 278° |
| 2026-05-01 08:40 | 49.49600 | 11.07619 | 1026 ft | 15 kts | 278° |
| 2026-05-01 08:41 | 49.49617 | 11.07437 | 1024 ft | 19 kts | 278° |
| 2026-05-01 08:41 | 49.49633 | 11.07285 | 1024 ft | 9 kts | 278° |
| 2026-05-01 08:41 | 49.49669 | 11.07225 | 1024 ft | 11 kts | 2° |
| 2026-05-01 08:41 | 49.49738 | 11.07174 | 1022 ft | 14 kts | 286° |
| 2026-05-01 08:42 | 49.49754 | 11.07004 | 1021 ft | 18 kts | 277° |
| 2026-05-01 08:42 | 49.49774 | 11.06799 | 1019 ft | 21 kts | 279° |
| 2026-05-01 08:42 | 49.49799 | 11.06568 | 1020 ft | 22 kts | 278° |
| 2026-05-01 08:42 | 49.49825 | 11.06316 | 1018 ft | 26 kts | 279° |
| 2026-05-01 08:43 | 49.49846 | 11.06098 | 1020 ft | 18 kts | 277° |
| 2026-05-01 08:43 | 49.49872 | 11.05989 | 1021 ft | 11 kts | 319° |
| 2026-05-01 08:43 | 49.49938 | 11.05941 | 1023 ft | 10 kts | 337° |
| 2026-05-01 08:43 | 49.50002 | 11.05919 | 1027 ft | 9 kts | 2° |
| 2026-05-01 08:44 | 49.50047 | 11.05971 | 1027 ft | 9 kts | 75° |
| 2026-05-01 08:44 | 49.50039 | 11.06100 | 1027 ft | 17 kts | 97° |
| 2026-05-01 08:44 | 49.49982 | 11.06667 | 1024 ft | 90 kts | 99° |
| 2026-05-01 08:44 | 49.49860 | 11.07889 | 1027 ft | 141 kts | 99° |
| 2026-05-01 08:45 | 49.49706 | 11.09561 | 1397 ft | 161 kts | 99° |
| 2026-05-01 08:45 | 49.49543 | 11.11241 | 2231 ft | 159 kts | 99° |
| 2026-05-01 08:45 | 49.49375 | 11.12913 | 3070 ft | 160 kts | 100° |
| 2026-05-01 08:45 | 49.49193 | 11.14703 | 3542 ft | 179 kts | 101° |
| 2026-05-01 08:46 | 49.48986 | 11.16724 | 3919 ft | 203 kts | 100° |
| 2026-05-01 08:46 | 49.48756 | 11.19006 | 4351 ft | 228 kts | 99° |
| 2026-05-01 08:46 | 49.48503 | 11.21523 | 5142 ft | 246 kts | 100° |
| 2026-05-01 08:46 | 49.48241 | 11.24144 | 6212 ft | 251 kts | 99° |
| 2026-05-01 08:47 | 49.48083 | 11.26846 | 7258 ft | 256 kts | 93° |
| 2026-05-01 08:47 | 49.48038 | 11.29615 | 8192 ft | 261 kts | 91° |
| 2026-05-01 08:47 | 49.48027 | 11.32440 | 9155 ft | 267 kts | 90° |
| 2026-05-01 08:47 | 49.48021 | 11.35327 | 10094 ft | 273 kts | 90° |
| 2026-05-01 08:48 | 49.48013 | 11.38290 | 10834 ft | 287 kts | 90° |
| 2026-05-01 08:48 | 49.48000 | 11.41483 | 11182 ft | 310 kts | 90° |
| 2026-05-01 08:48 | 49.47980 | 11.44895 | 11668 ft | 325 kts | 90° |
| 2026-05-01 08:48 | 49.47954 | 11.48398 | 12425 ft | 331 kts | 90° |
| 2026-05-01 08:49 | 49.47925 | 11.51958 | 13247 ft | 335 kts | 90° |
| 2026-05-01 08:49 | 49.47891 | 11.55562 | 14053 ft | 339 kts | 90° |
| 2026-05-01 08:49 | 49.47852 | 11.59215 | 14800 ft | 343 kts | 90° |
| 2026-05-01 08:49 | 49.47813 | 11.62888 | 15531 ft | 345 kts | 90° |
| 2026-05-01 08:50 | 49.47774 | 11.66598 | 16161 ft | 348 kts | 89° |
| 2026-05-01 08:50 | 49.47734 | 11.70318 | 16372 ft | 349 kts | 90° |
| 2026-05-01 08:50 | 49.47695 | 11.73998 | 16425 ft | 348 kts | 89° |
| 2026-05-01 08:50 | 49.47655 | 11.77726 | 16542 ft | 352 kts | 89° |
| 2026-05-01 08:51 | 49.47611 | 11.81498 | 17297 ft | 353 kts | 89° |
| 2026-05-01 08:51 | 49.47564 | 11.85242 | 18060 ft | 355 kts | 89° |
| 2026-05-01 08:51 | 49.47515 | 11.89084 | 18788 ft | 358 kts | 89° |
| 2026-05-01 08:51 | 49.47435 | 11.92925 | 19400 ft | 362 kts | 93° |
| 2026-05-01 08:52 | 49.46990 | 11.96764 | 20009 ft | 368 kts | 103° |
| 2026-05-01 08:52 | 49.46174 | 12.00470 | 20586 ft | 373 kts | 107° |
| 2026-05-01 08:52 | 49.45294 | 12.04243 | 21158 ft | 377 kts | 107° |
| 2026-05-01 08:52 | 49.44408 | 12.08047 | 21715 ft | 381 kts | 107° |
| 2026-05-01 08:53 | 49.43512 | 12.11896 | 22272 ft | 384 kts | 106° |
| 2026-05-01 08:53 | 49.42608 | 12.15780 | 22813 ft | 388 kts | 106° |
| 2026-05-01 08:53 | 49.41698 | 12.19698 | 23343 ft | 392 kts | 106° |
| 2026-05-01 08:53 | 49.40777 | 12.23656 | 23883 ft | 395 kts | 106° |
| 2026-05-01 08:54 | 49.39844 | 12.27641 | 24347 ft | 399 kts | 106° |
| 2026-05-01 08:54 | 49.38897 | 12.31665 | 24817 ft | 402 kts | 106° |
| 2026-05-01 08:54 | 49.37941 | 12.35718 | 25278 ft | 405 kts | 106° |
| 2026-05-01 08:54 | 49.36979 | 12.39789 | 25742 ft | 408 kts | 106° |
| 2026-05-01 08:55 | 49.36007 | 12.43895 | 26181 ft | 411 kts | 106° |
| 2026-05-01 08:55 | 49.35029 | 12.48029 | 26622 ft | 414 kts | 106° |
| 2026-05-01 08:55 | 49.33898 | 12.52108 | 27048 ft | 420 kts | 114° |
| 2026-05-01 08:55 | 49.32299 | 12.55904 | 27493 ft | 428 kts | 124° |
| 2026-05-01 08:56 | 49.30275 | 12.59304 | 27916 ft | 434 kts | 130° |
| 2026-05-01 08:56 | 49.28144 | 12.62611 | 28354 ft | 437 kts | 130° |
| 2026-05-01 08:56 | 49.26001 | 12.65936 | 28801 ft | 440 kts | 130° |
| 2026-05-01 08:56 | 49.23842 | 12.69278 | 29219 ft | 443 kts | 130° |
| 2026-05-01 08:57 | 49.21665 | 12.72645 | 29645 ft | 446 kts | 130° |
| 2026-05-01 08:57 | 49.19475 | 12.76035 | 30042 ft | 449 kts | 130° |
| 2026-05-01 08:57 | 49.17270 | 12.79441 | 30462 ft | 452 kts | 130° |
| 2026-05-01 08:57 | 49.15049 | 12.82873 | 30818 ft | 455 kts | 130° |
| 2026-05-01 08:58 | 49.12817 | 12.86314 | 31142 ft | 458 kts | 130° |
| 2026-05-01 08:58 | 49.10566 | 12.89775 | 31572 ft | 459 kts | 130° |
| 2026-05-01 08:58 | 49.08348 | 12.93178 | 32062 ft | 458 kts | 130° |
| 2026-05-01 08:58 | 49.06100 | 12.96618 | 32573 ft | 457 kts | 130° |
| 2026-05-01 08:59 | 49.03856 | 13.00052 | 33083 ft | 456 kts | 129° |
| 2026-05-01 08:59 | 49.01618 | 13.03477 | 33584 ft | 456 kts | 129° |
| 2026-05-01 08:59 | 48.99396 | 13.06876 | 34088 ft | 456 kts | 129° |
| 2026-05-01 08:59 | 48.97155 | 13.10294 | 34574 ft | 456 kts | 129° |
| 2026-05-01 09:00 | 48.94921 | 13.13696 | 35021 ft | 455 kts | 129° |
| 2026-05-01 09:00 | 48.92686 | 13.17097 | 35476 ft | 454 kts | 129° |
| 2026-05-01 09:00 | 48.90458 | 13.20485 | 35932 ft | 453 kts | 129° |
| 2026-05-01 09:00 | 48.88228 | 13.23868 | 36378 ft | 452 kts | 129° |
| 2026-05-01 09:01 | 48.86010 | 13.27230 | 36820 ft | 451 kts | 129° |
| 2026-05-01 09:01 | 48.83790 | 13.30588 | 37253 ft | 450 kts | 129° |
| 2026-05-01 09:01 | 48.81577 | 13.33931 | 37673 ft | 449 kts | 130° |
| 2026-05-01 09:01 | 48.79365 | 13.37264 | 38109 ft | 448 kts | 130° |
| 2026-05-01 09:02 | 48.77156 | 13.40587 | 38525 ft | 446 kts | 130° |
| 2026-05-01 09:02 | 48.74953 | 13.43899 | 38934 ft | 445 kts | 130° |
| 2026-05-01 09:02 | 48.72874 | 13.47023 | 39260 ft | 444 kts | 130° |
| 2026-05-01 09:02 | 48.70674 | 13.50326 | 39397 ft | 445 kts | 130° |
| 2026-05-01 09:03 | 48.66411 | 13.57069 | 39441 ft | 439 kts | 122° |
| 2026-05-01 09:03 | 48.63850 | 13.63573 | 39440 ft | 429 kts | 108° |
| 2026-05-01 09:04 | 48.61137 | 13.73214 | 39444 ft | 429 kts | 108° |
| 2026-05-01 09:04 | 48.59167 | 13.80146 | 39442 ft | 429 kts | 108° |
| 2026-05-01 09:05 | 48.56804 | 13.88415 | 39453 ft | 429 kts | 108° |
| 2026-05-01 09:05 | 48.54444 | 13.96665 | 39465 ft | 428 kts | 108° |
| 2026-05-01 09:06 | 48.52071 | 14.04918 | 39463 ft | 428 kts | 108° |
| 2026-05-01 09:06 | 48.49715 | 14.13101 | 39457 ft | 428 kts | 108° |
| 2026-05-01 09:07 | 48.47341 | 14.21326 | 39459 ft | 428 kts | 108° |
| 2026-05-01 09:07 | 48.44962 | 14.29544 | 39462 ft | 428 kts | 108° |
| 2026-05-01 09:08 | 48.42570 | 14.37765 | 39457 ft | 428 kts | 108° |
| 2026-05-01 09:08 | 48.40176 | 14.45969 | 39458 ft | 428 kts | 108° |
| 2026-05-01 09:09 | 48.37776 | 14.54179 | 39462 ft | 428 kts | 108° |
| 2026-05-01 09:09 | 48.35369 | 14.62374 | 39465 ft | 429 kts | 108° |
| 2026-05-01 09:10 | 48.32953 | 14.70568 | 39467 ft | 429 kts | 108° |
| 2026-05-01 09:10 | 48.30530 | 14.78763 | 39464 ft | 429 kts | 108° |
| 2026-05-01 09:11 | 48.28138 | 14.86817 | 39465 ft | 430 kts | 108° |
| 2026-05-01 09:11 | 48.25676 | 14.95091 | 39465 ft | 430 kts | 108° |
| 2026-05-01 09:12 | 48.23246 | 15.03228 | 39464 ft | 430 kts | 108° |
| 2026-05-01 09:12 | 48.20789 | 15.11409 | 39461 ft | 430 kts | 108° |
| 2026-05-01 09:13 | 48.18324 | 15.19586 | 39460 ft | 431 kts | 108° |
| 2026-05-01 09:13 | 48.15857 | 15.27769 | 39461 ft | 431 kts | 108° |
| 2026-05-01 09:14 | 48.13384 | 15.35948 | 39461 ft | 432 kts | 108° |
| 2026-05-01 09:14 | 48.10901 | 15.44131 | 39459 ft | 432 kts | 108° |
| 2026-05-01 09:15 | 48.08405 | 15.52318 | 39460 ft | 432 kts | 108° |
| 2026-05-01 09:15 | 48.05904 | 15.60499 | 39450 ft | 433 kts | 108° |
| 2026-05-01 09:16 | 48.03627 | 15.68782 | 39447 ft | 429 kts | 102° |
| 2026-05-01 09:17 | 48.00744 | 15.81437 | 39445 ft | 429 kts | 103° |
| 2026-05-01 09:17 | 47.97881 | 15.93864 | 39442 ft | 430 kts | 103° |
| 2026-05-01 09:18 | 47.94984 | 16.06383 | 39445 ft | 430 kts | 103° |
| 2026-05-01 09:19 | 47.92029 | 16.19043 | 39440 ft | 431 kts | 103° |
| 2026-05-01 09:20 | 47.89075 | 16.31712 | 39439 ft | 432 kts | 103° |
| 2026-05-01 09:21 | 47.85081 | 16.48605 | 39439 ft | 433 kts | 103° |
| 2026-05-01 09:21 | 47.82087 | 16.61266 | 39437 ft | 433 kts | 103° |
| 2026-05-01 09:22 | 47.78053 | 16.78170 | 39436 ft | 434 kts | 103° |
| 2026-05-01 09:23 | 47.75009 | 16.90785 | 39432 ft | 434 kts | 103° |
| 2026-05-01 09:24 | 47.71944 | 17.03451 | 39429 ft | 435 kts | 103° |
| 2026-05-01 09:25 | 47.66677 | 17.19832 | 39422 ft | 441 kts | 110° |
| 2026-05-01 09:26 | 47.62584 | 17.32052 | 39421 ft | 441 kts | 110° |
| 2026-05-01 09:26 | 47.58480 | 17.44275 | 39426 ft | 442 kts | 110° |
| 2026-05-01 09:27 | 47.54369 | 17.56489 | 39424 ft | 442 kts | 110° |
| 2026-05-01 09:28 | 47.51614 | 17.64624 | 39428 ft | 442 kts | 110° |
| 2026-05-01 09:28 | 47.48873 | 17.72671 | 39426 ft | 442 kts | 110° |
| 2026-05-01 09:29 | 47.44745 | 17.84788 | 39427 ft | 443 kts | 110° |
| 2026-05-01 09:30 | 47.40575 | 17.96958 | 39418 ft | 443 kts | 111° |
| 2026-05-01 09:30 | 47.36391 | 18.09103 | 39405 ft | 443 kts | 111° |
| 2026-05-01 09:31 | 47.33670 | 18.16965 | 39403 ft | 442 kts | 111° |
| 2026-05-01 09:32 | 47.29474 | 18.29087 | 39403 ft | 443 kts | 111° |
| 2026-05-01 09:32 | 47.25252 | 18.41184 | 39406 ft | 443 kts | 111° |
| 2026-05-01 09:33 | 47.22437 | 18.49246 | 39406 ft | 443 kts | 111° |
| 2026-05-01 09:34 | 47.18199 | 18.61323 | 39409 ft | 443 kts | 112° |
| 2026-05-01 09:34 | 47.13963 | 18.73320 | 39405 ft | 443 kts | 112° |
| 2026-05-01 09:35 | 47.09692 | 18.85364 | 39406 ft | 444 kts | 112° |
| 2026-05-01 09:36 | 47.06833 | 18.93393 | 39406 ft | 444 kts | 112° |
| 2026-05-01 09:36 | 47.03971 | 19.01412 | 39400 ft | 444 kts | 112° |
| 2026-05-01 09:37 | 47.01105 | 19.09426 | 39400 ft | 444 kts | 112° |
| 2026-05-01 09:37 | 46.96790 | 19.21448 | 39398 ft | 444 kts | 113° |
| 2026-05-01 09:38 | 46.92458 | 19.33444 | 39401 ft | 445 kts | 113° |
| 2026-05-01 09:39 | 46.88114 | 19.45434 | 39402 ft | 445 kts | 113° |
| 2026-05-01 09:39 | 46.85207 | 19.53423 | 39400 ft | 446 kts | 113° |
| 2026-05-01 09:40 | 46.80825 | 19.65411 | 39394 ft | 446 kts | 114° |
| 2026-05-01 09:41 | 46.77896 | 19.73411 | 39394 ft | 447 kts | 114° |
| 2026-05-01 09:41 | 46.73484 | 19.85404 | 39393 ft | 448 kts | 114° |
| 2026-05-01 09:42 | 46.70548 | 19.93345 | 39392 ft | 449 kts | 114° |
| 2026-05-01 09:43 | 46.64615 | 20.09353 | 39385 ft | 450 kts | 114° |
| 2026-05-01 09:43 | 46.61640 | 20.17353 | 39384 ft | 450 kts | 114° |
| 2026-05-01 09:44 | 46.57143 | 20.29348 | 39383 ft | 450 kts | 114° |
| 2026-05-01 09:45 | 46.54141 | 20.37332 | 39381 ft | 451 kts | 115° |
| 2026-05-01 09:45 | 46.49624 | 20.49317 | 39381 ft | 451 kts | 115° |
| 2026-05-01 09:46 | 46.46611 | 20.57292 | 39368 ft | 451 kts | 115° |
| 2026-05-01 09:46 | 46.43594 | 20.65263 | 39366 ft | 451 kts | 115° |
| 2026-05-01 09:47 | 46.40584 | 20.73188 | 39368 ft | 452 kts | 115° |
| 2026-05-01 09:47 | 46.39062 | 20.77177 | 39141 ft | 454 kts | 115° |
| 2026-05-01 09:47 | 46.37525 | 20.81207 | 38197 ft | 461 kts | 115° |
| 2026-05-01 09:48 | 46.35971 | 20.85275 | 37269 ft | 460 kts | 114° |
| 2026-05-01 09:48 | 46.34419 | 20.89325 | 36076 ft | 459 kts | 114° |
| 2026-05-01 09:48 | 46.32872 | 20.93355 | 34924 ft | 457 kts | 113° |
| 2026-05-01 09:48 | 46.31328 | 20.97362 | 33683 ft | 454 kts | 113° |
| 2026-05-01 09:49 | 46.29797 | 21.01322 | 32329 ft | 449 kts | 112° |
| 2026-05-01 09:49 | 46.28226 | 21.05188 | 31448 ft | 441 kts | 117° |
| 2026-05-01 09:49 | 46.26253 | 21.08476 | 31283 ft | 426 kts | 128° |
| 2026-05-01 09:49 | 46.23941 | 21.11042 | 31161 ft | 413 kts | 139° |
| 2026-05-01 09:50 | 46.21391 | 21.12844 | 31019 ft | 404 kts | 150° |
| 2026-05-01 09:50 | 46.18708 | 21.13980 | 30623 ft | 402 kts | 160° |
| 2026-05-01 09:50 | 46.15912 | 21.14394 | 30015 ft | 407 kts | 171° |
| 2026-05-01 09:50 | 46.13100 | 21.14433 | 29306 ft | 402 kts | 172° |
| 2026-05-01 09:51 | 46.10316 | 21.14451 | 28628 ft | 397 kts | 172° |
| 2026-05-01 09:51 | 46.07570 | 21.14462 | 27966 ft | 392 kts | 173° |
| 2026-05-01 09:51 | 46.04899 | 21.14473 | 27314 ft | 386 kts | 173° |
| 2026-05-01 09:51 | 46.02234 | 21.14527 | 26668 ft | 377 kts | 168° |
| 2026-05-01 09:52 | 45.99710 | 21.15315 | 26051 ft | 359 kts | 151° |
| 2026-05-01 09:52 | 45.97587 | 21.16921 | 25427 ft | 342 kts | 136° |
| 2026-05-01 09:52 | 45.95853 | 21.19214 | 24775 ft | 328 kts | 122° |
| 2026-05-01 09:52 | 45.94647 | 21.21861 | 24149 ft | 317 kts | 109° |
| 2026-05-01 09:53 | 45.93859 | 21.24773 | 23418 ft | 311 kts | 103° |
| 2026-05-01 09:53 | 45.93136 | 21.27701 | 22688 ft | 310 kts | 103° |
| 2026-05-01 09:53 | 45.92414 | 21.30604 | 22009 ft | 308 kts | 104° |
| 2026-05-01 09:53 | 45.91692 | 21.33486 | 21360 ft | 305 kts | 104° |
| 2026-05-01 09:54 | 45.90975 | 21.36340 | 20729 ft | 303 kts | 104° |
| 2026-05-01 09:54 | 45.90259 | 21.39176 | 20126 ft | 301 kts | 104° |
| 2026-05-01 09:54 | 45.89549 | 21.41987 | 19534 ft | 299 kts | 104° |
| 2026-05-01 09:54 | 45.88845 | 21.44781 | 18961 ft | 297 kts | 104° |
| 2026-05-01 09:55 | 45.88145 | 21.47554 | 18370 ft | 294 kts | 104° |
| 2026-05-01 09:55 | 45.87449 | 21.50297 | 17749 ft | 292 kts | 105° |
| 2026-05-01 09:55 | 45.86757 | 21.53020 | 17156 ft | 289 kts | 105° |
| 2026-05-01 09:55 | 45.86073 | 21.55718 | 16565 ft | 286 kts | 105° |
| 2026-05-01 09:56 | 45.85397 | 21.58390 | 15991 ft | 283 kts | 105° |
| 2026-05-01 09:56 | 45.84728 | 21.61030 | 15425 ft | 281 kts | 105° |
| 2026-05-01 09:56 | 45.84060 | 21.63662 | 14997 ft | 281 kts | 105° |
| 2026-05-01 09:56 | 45.83405 | 21.66238 | 14619 ft | 276 kts | 105° |
| 2026-05-01 09:57 | 45.82740 | 21.68852 | 14071 ft | 274 kts | 105° |
| 2026-05-01 09:57 | 45.82090 | 21.71406 | 13473 ft | 272 kts | 105° |
| 2026-05-01 09:57 | 45.81452 | 21.73910 | 12904 ft | 270 kts | 105° |
| 2026-05-01 09:57 | 45.80810 | 21.76423 | 12351 ft | 266 kts | 105° |
| 2026-05-01 09:58 | 45.80180 | 21.78889 | 11908 ft | 262 kts | 105° |
| 2026-05-01 09:58 | 45.79557 | 21.81334 | 11527 ft | 262 kts | 105° |
| 2026-05-01 09:58 | 45.78928 | 21.83802 | 11169 ft | 264 kts | 106° |
| 2026-05-01 09:58 | 45.78299 | 21.86266 | 10815 ft | 265 kts | 106° |
| 2026-05-01 09:59 | 45.77658 | 21.88723 | 10570 ft | 263 kts | 110° |
| 2026-05-01 09:59 | 45.76519 | 21.90758 | 10400 ft | 268 kts | 143° |
| 2026-05-01 09:59 | 45.74740 | 21.91549 | 10025 ft | 275 kts | 178° |
| 2026-05-01 09:59 | 45.72855 | 21.91013 | 9699 ft | 277 kts | 195° |
| 2026-05-01 10:00 | 45.71043 | 21.90098 | 9391 ft | 275 kts | 200° |
| 2026-05-01 10:00 | 45.69372 | 21.88811 | 9081 ft | 273 kts | 224° |
| 2026-05-01 10:00 | 45.68379 | 21.86564 | 8815 ft | 267 kts | 255° |
| 2026-05-01 10:00 | 45.68203 | 21.84846 | 8623 ft | 263 kts | 275° |
| 2026-05-01 10:01 | 45.68610 | 21.82344 | 8313 ft | 257 kts | 292° |
| 2026-05-01 10:01 | 45.69237 | 21.79954 | 7943 ft | 254 kts | 293° |
| 2026-05-01 10:01 | 45.69856 | 21.77587 | 7424 ft | 253 kts | 292° |
| 2026-05-01 10:01 | 45.70461 | 21.75233 | 6893 ft | 252 kts | 292° |
| 2026-05-01 10:02 | 45.71272 | 21.72064 | 5945 ft | 262 kts | 291° |
| 2026-05-01 10:02 | 45.71691 | 21.70426 | 5550 ft | 256 kts | 292° |
| 2026-05-01 10:02 | 45.72285 | 21.68096 | 5161 ft | 241 kts | 292° |
| 2026-05-01 10:02 | 45.72842 | 21.65915 | 4833 ft | 226 kts | 292° |
| 2026-05-01 10:03 | 45.73365 | 21.63864 | 4529 ft | 213 kts | 291° |
| 2026-05-01 10:03 | 45.73859 | 21.61924 | 4245 ft | 201 kts | 292° |
| 2026-05-01 10:03 | 45.74319 | 21.60118 | 3975 ft | 185 kts | 292° |
| 2026-05-01 10:03 | 45.74733 | 21.58488 | 3746 ft | 166 kts | 292° |
| 2026-05-01 10:04 | 45.75097 | 21.57053 | 3537 ft | 145 kts | 291° |
| 2026-05-01 10:04 | 45.75432 | 21.55738 | 3339 ft | 137 kts | 292° |
| 2026-05-01 10:04 | 45.75753 | 21.54476 | 3159 ft | 134 kts | 292° |
| 2026-05-01 10:04 | 45.76068 | 21.53236 | 2967 ft | 132 kts | 292° |
| 2026-05-01 10:05 | 45.76380 | 21.52008 | 2779 ft | 130 kts | 292° |
| 2026-05-01 10:05 | 45.76693 | 21.50777 | 2618 ft | 133 kts | 292° |
| 2026-05-01 10:05 | 45.77007 | 21.49537 | 2416 ft | 131 kts | 291° |
| 2026-05-01 10:05 | 45.77316 | 21.48315 | 2254 ft | 131 kts | 291° |
| 2026-05-01 10:06 | 45.77627 | 21.47087 | 2072 ft | 131 kts | 291° |
| 2026-05-01 10:06 | 45.77937 | 21.45862 | 1887 ft | 130 kts | 291° |
| 2026-05-01 10:06 | 45.78246 | 21.44640 | 1707 ft | 130 kts | 291° |
| 2026-05-01 10:06 | 45.78554 | 21.43422 | 1526 ft | 131 kts | 292° |
| 2026-05-01 10:07 | 45.78861 | 21.42206 | 1352 ft | 130 kts | 291° |
| 2026-05-01 10:07 | 45.79167 | 21.40996 | 1162 ft | 128 kts | 290° |
| 2026-05-01 10:07 | 45.79472 | 21.39786 | 981 ft | 130 kts | 291° |
| 2026-05-01 10:07 | 45.79776 | 21.38583 | 796 ft | 128 kts | 291° |
| 2026-05-01 10:08 | 45.80383 | 21.36176 | 449 ft | 128 kts | 291° |
| 2026-05-01 10:08 | 45.80681 | 21.34992 | 350 ft | 117 kts | 290° |
| 2026-05-01 10:08 | 45.80900 | 21.34122 | 345 ft | 66 kts | 289° |
| 2026-05-01 10:09 | 45.80991 | 21.33756 | 343 ft | 23 kts | 289° |
| 2026-05-01 10:09 | 45.81007 | 21.33609 | 352 ft | 15 kts | 246° |
| 2026-05-01 10:09 | 45.80920 | 21.33541 | 349 ft | 14 kts | 200° |
| 2026-05-01 10:09 | 45.80864 | 21.33423 | 342 ft | 18 kts | 281° |
| 2026-05-01 10:10 | 45.80905 | 21.33254 | 346 ft | 18 kts | 289° |
| 2026-05-01 10:10 | 45.80946 | 21.33087 | 347 ft | 21 kts | 290° |
| 2026-05-01 10:10 | 45.81052 | 21.32667 | 343 ft | 24 kts | 290° |
| 2026-05-01 10:11 | 45.81090 | 21.32517 | 343 ft | 9 kts | 289° |
| 2026-05-01 10:11 | 45.81068 | 21.32428 | 347 ft | 4 kts | 234° |
| 2026-05-01 10:11 | 45.81058 | 21.32385 | 350 ft | 6 kts | 274° |
| 2026-05-01 10:11 | 45.81076 | 21.32308 | 345 ft | 10 kts | 290° |
| 2026-05-01 10:12 | 45.81075 | 21.32259 | 349 ft | 5 kts | 232° |
| 2026-05-01 10:12 | 45.81047 | 21.32239 | 344 ft | 3 kts | 199° |
| 2026-05-01 10:12 | 45.81030 | 21.32231 | 342 ft | 0 kts | 198° |